Park Valley, UT (84329)

4:09 PM MDT on July 25, 2014 (GMT -0600)
Park Valley 1431A (KUTPARKV3) Elev 5535 ft | 41.82 °N, 113.33 °W | Change Station

Current weather conditions updated 31 seconds ago

Clear
Clear
86.5 °F
Feels Like 83 °F
N
6.0
Wind Variable Wind from SSE
Gusts 7.0 mph

Tomorrow is forecast to be nearly the same temperature as today.

Today
High -- | Low -- °F
--% Chance of Precip.
Yesterday
High -- | Low -- °F
Precip. -- in
6:20 AM 8:58 PM
Waning Crescent, 1% visible
Pressure 29.94 in
Visibility 10.0 miles
Clouds Clear
Heat Index 83 °F
Dew Point 28 °F
Humidity 12%
Rainfall 0.00 in
Snow Depth Not available.
UV 9 out of 12
Pollen 6.20 out of 12
PM2.5 Good
Flu Activity Not available.
METAR KBYI 252153Z AUTO 28007KT 10SM CLR 27/03 A3005 RMK AO2 SLP137 T02670028

More Conditions Fewer Conditions

Pressure 29.94 in
Visibility 10.0 miles
Clouds Clear
Heat Index 83 °F
Dew Point 28 °F
Humidity 12%
Rainfall 0.00 in
Snow Depth Not available.
UV 9 out of 12
Pollen 6.20 out of 12
PM2.5 Good
Flu Activity Not available.
METAR KBYI 252153Z AUTO 28007KT 10SM CLR 27/03 A3005 RMK AO2 SLP137 T02670028

More Conditions Fewer Conditions

10-Day Weather Forecast

Almanac

Astronomy

Jul. 25, 2014 Rise Set
Actual Time 6:20 AM MDT 8:58 PM MDT
Civil Twilight 5:48 AM MDT 9:30 PM MDT
Nautical Twilight 5:07 AM MDT 10:10 PM MDT
Astronomical Twilight 4:22 AM MDT 10:55 PM MDT
Moon 5:23 AM MDT 7:57 PM MDT
Length of Visible Light 15h 42m
Length of Day
14h 38m
Tomorrow will be 1m 54s shorter.
Waning Crescent, 1% of the Moon is Illuminated
Today
Waning Crescent
Jul 26
New
Aug 3
First Quarter
Aug 10
Full
Aug 17
Last Quarter

Today's Extremes

State Highs State Lows

Community

WunderPhotos

Upload Photos

1,737,415 photos uploaded!

Nearby

Air Quality

  Air Quality AQ Index Pollutant
Yesterday Good
OZONE
Yesterday Good
PM2.5
Current Good
PM2.5

Snow Depth

Station Depth Elevation
Ben Lomond Trail 0 in 6000 ft
Little Bear 0 in 6550 ft
Dry Fork 0 in 7160 ft
Hardscrabble 0 in 7250 ft
Mosby Mountain 0 in 9500 ft

Earthquake Activity

City Distance Mag. Time & Date
Wendover, Utah 102 miles 2.5 5:11 AM MDT
2014-07-20
Minimum magnitude displayed is 2.5.

Coastal Water Temperatures

Place Temperature
No Stations Reporting

Nearby Weather Stations

Station Location Temp. Heat Index Dew Point Humidity Wind Precip. Elev Updated Type
Park Valley 1431A, Park Valley, UT 86.5 °F 83 °F 28 °F 12% SSE  at  6.0 mph 0.00 in / hr 5535 ft 4:08 PM MDT Normal
MesoWest PARK VALLEY , Park Valley, UT 86 °F 83 °F 23 °F 10% NE  at  5 mph 0.00 in / hr 5100 ft 3:00 PM MDT MADIS
RAWS MOBURG CANYON ID, Park Valley, UT 76 °F 76 °F 27 °F 16% WNW  at  12 mph 0.00 in / hr 6399 ft 2:39 PM MDT MADIS
RAWS ROSEBUD UT, Grouse Creek, UT 88 °F 84 °F 27 °F 11% ESE  at  11 mph 0.00 in / hr 4986 ft 2:42 PM MDT MADIS

Show More Stations Show Fewer Stations